Terminal Aerodrome Forecast
Issued by NWS Charleston, WV

Home | Current Version | Previous Version | Text Only | Print | Product List | Glossary On
Versions: 1 2 3 4 5 6 7 8 9 10 11 12 13 14 15 16 17 18 19 20 21 22 23 24
000
FTUS41 KRLX 301100
TAFPKB
TAF
KPKB 301132Z 3012/0112 00000KT 1/2SM FG BKN001
     FM301300 VRB03KT 4SM BR FEW010
     FM301400 00000KT P6SM SCT045
     FM301600 25007KT P6SM BKN045
     FM302100 31005KT 6SM HZ VCSH BKN045
     FM010200 34003KT 6SM HZ BKN020
     FM010500 VRB03KT 5SM BR OVC014
     FM010800 00000KT 4SM BR OVC009=

USA.gov is the U.S. government's official web portal to all federal, state and local government web resources and services.